createdAt,value
2022-09-12T00:02:22.134Z,13.11
2022-09-12T00:04:52.769Z,13.07
2022-09-12T00:07:23.310Z,13.06
2022-09-12T00:09:53.937Z,13.06
2022-09-12T00:12:24.590Z,13.07
2022-09-12T00:14:55.056Z,13.08
2022-09-12T00:17:25.501Z,13.10
2022-09-12T00:19:56.424Z,13.14
2022-09-12T00:22:26.955Z,13.07
2022-09-12T00:24:57.123Z,13.07
2022-09-12T00:27:27.723Z,13.13
2022-09-12T00:29:57.807Z,13.13
2022-09-12T00:32:27.993Z,13.06
2022-09-12T00:34:58.340Z,13.08
2022-09-12T00:37:28.709Z,13.02
2022-09-12T00:39:59.104Z,13.07
2022-09-12T00:42:29.560Z,13.06
2022-09-12T00:44:59.972Z,13.03
2022-09-12T00:47:33.473Z,13.08
2022-09-12T00:50:16.286Z,13.17
2022-09-12T00:53:04.595Z,13.10
2022-09-12T00:55:41.274Z,13.08
2022-09-12T00:58:24.068Z,13.18
2022-09-12T01:00:54.846Z,13.24
2022-09-12T01:03:26.657Z,13.33
2022-09-12T01:06:17.397Z,13.38
2022-09-12T01:08:50.026Z,13.24
2022-09-12T01:11:22.024Z,13.17
2022-09-12T01:13:53.345Z,13.17
2022-09-12T01:16:24.063Z,13.24
2022-09-12T01:19:22.719Z,13.27
2022-09-12T01:21:59.022Z,13.15
2022-09-12T01:24:45.042Z,13.21
2022-09-12T01:27:28.312Z,13.13
2022-09-12T01:30:08.157Z,13.14
2022-09-12T01:32:38.659Z,13.23
2022-09-12T01:35:45.334Z,13.30
2022-09-12T01:38:29.502Z,13.37
2022-09-12T01:41:18.287Z,13.27
2022-09-12T01:44:11.515Z,13.28
2022-09-12T01:46:56.818Z,13.25
2022-09-12T01:50:02.043Z,13.23
2022-09-12T01:52:56.364Z,13.28
2022-09-12T01:55:32.950Z,13.21
2022-09-12T01:58:12.431Z,13.21
2022-09-12T02:01:16.824Z,13.23
2022-09-12T02:04:02.899Z,13.34
2022-09-12T02:06:45.564Z,13.47
2022-09-12T02:09:24.485Z,13.45
2022-09-12T02:12:00.307Z,13.35
2022-09-12T02:14:35.605Z,13.41
2022-09-12T02:17:11.933Z,13.55
2022-09-12T02:19:49.429Z,13.61
2022-09-12T02:22:24.336Z,13.53
2022-09-12T02:25:00.811Z,13.55
2022-09-12T02:27:31.136Z,13.58
2022-09-12T02:30:02.247Z,13.59
2022-09-12T02:32:39.468Z,13.41
2022-09-12T02:35:23.050Z,13.41
2022-09-12T02:38:12.071Z,13.53
2022-09-12T02:40:43.276Z,13.54
2022-09-12T02:43:13.796Z,13.55
2022-09-12T02:45:43.858Z,13.57
2022-09-12T02:48:32.178Z,13.48
2022-09-12T02:51:04.080Z,13.25
2022-09-12T02:53:35.182Z,13.30
2022-09-12T02:56:10.386Z,13.40
2022-09-12T02:58:40.919Z,13.43
2022-09-12T03:01:26.830Z,13.27
2022-09-12T03:04:05.708Z,13.11
2022-09-12T03:06:39.851Z,13.11
2022-09-12T03:09:30.883Z,13.15
2022-09-12T03:12:22.717Z,13.10
2022-09-12T03:15:02.856Z,13.15
2022-09-12T03:18:11.579Z,12.99
2022-09-12T03:20:53.096Z,13.10
2022-09-12T03:23:37.224Z,13.10
2022-09-12T03:26:21.448Z,13.10
2022-09-12T03:28:53.071Z,13.17
2022-09-12T03:31:23.996Z,13.17
2022-09-12T03:33:54.656Z,13.15
2022-09-12T03:36:25.808Z,13.13
2022-09-12T03:38:56.409Z,12.97
2022-09-12T03:41:26.884Z,12.83
2022-09-12T03:43:58.362Z,12.87
2022-09-12T03:46:28.736Z,12.93
2022-09-12T03:48:59.312Z,12.97
2022-09-12T03:51:30.143Z,13.03
2022-09-12T03:54:00.502Z,12.80
2022-09-12T03:56:30.876Z,12.87
2022-09-12T03:59:01.658Z,12.89
2022-09-12T04:01:32.198Z,12.84
2022-09-12T04:04:02.642Z,12.75
2022-09-12T04:06:33.125Z,12.84
2022-09-12T04:09:03.934Z,12.86
2022-09-12T04:11:34.326Z,12.84
2022-09-12T04:14:04.732Z,12.72
2022-09-12T04:16:35.189Z,12.62
2022-09-12T04:19:06.350Z,12.72
2022-09-12T04:21:36.719Z,12.77
2022-09-12T04:24:07.466Z,12.77
2022-09-12T04:26:37.839Z,12.59
2022-09-12T04:29:08.378Z,12.42
2022-09-12T04:31:38.297Z,12.43
2022-09-12T04:34:09.199Z,12.41
2022-09-12T04:36:40.139Z,12.46
2022-09-12T04:39:11.883Z,12.55
2022-09-12T04:41:43.398Z,12.56
2022-09-12T04:44:16.033Z,12.52
2022-09-12T04:46:48.457Z,12.42
2022-09-12T04:49:20.648Z,12.35
2022-09-12T04:51:51.085Z,12.42
2022-09-12T04:54:22.049Z,12.50
2022-09-12T04:56:53.886Z,12.48
2022-09-12T04:59:25.526Z,12.43
2022-09-12T05:01:56.072Z,12.43
2022-09-12T05:04:26.685Z,12.46
2022-09-12T05:06:56.551Z,12.48
2022-09-12T05:09:26.927Z,12.36
2022-09-12T05:12:05.055Z,12.12
2022-09-12T05:14:36.501Z,12.08
2022-09-12T05:17:07.437Z,12.18
2022-09-12T05:19:38.314Z,12.26
2022-09-12T05:22:08.734Z,12.39
2022-09-12T05:24:41.123Z,12.45
2022-09-12T05:27:11.804Z,12.43
2022-09-12T05:29:41.681Z,12.28
2022-09-12T05:32:13.756Z,12.36
2022-09-12T05:34:44.517Z,12.15
2022-09-12T05:37:15.004Z,12.04
2022-09-12T05:39:45.504Z,12.08
2022-09-12T05:42:16.627Z,12.05
2022-09-12T05:44:46.960Z,12.10
2022-09-12T05:47:18.597Z,12.21
2022-09-12T05:49:49.491Z,12.14
2022-09-12T05:52:20.012Z,11.97
2022-09-12T05:54:50.619Z,12.05
2022-09-12T05:57:20.457Z,12.04
2022-09-12T05:59:51.570Z,12.08
2022-09-12T06:02:22.236Z,12.11
2022-09-12T06:04:52.833Z,11.91
2022-09-12T06:07:23.209Z,11.95
2022-09-12T06:09:53.713Z,12.05
2022-09-12T06:12:24.164Z,11.98
2022-09-12T06:14:55.451Z,11.87
2022-09-12T06:17:25.892Z,11.84
2022-09-12T06:19:56.726Z,11.74
2022-09-12T06:22:27.075Z,11.74
2022-09-12T06:24:58.094Z,11.78
2022-09-12T06:27:28.554Z,11.80
2022-09-12T06:29:59.104Z,11.95
2022-09-12T06:32:32.976Z,12.04
2022-09-12T06:35:03.829Z,11.80
2022-09-12T06:37:34.308Z,11.99
2022-09-12T06:40:04.984Z,12.12
2022-09-12T06:42:35.364Z,12.18
2022-09-12T06:45:06.267Z,12.24
2022-09-12T06:47:36.670Z,12.28
2022-09-12T06:50:07.556Z,12.17
2022-09-12T06:52:37.938Z,12.06
2022-09-12T06:55:08.651Z,12.17
2022-09-12T06:57:40.148Z,11.99
2022-09-12T07:00:11.973Z,12.08
2022-09-12T07:02:42.496Z,12.15
2022-09-12T07:05:12.972Z,12.21
2022-09-12T07:07:43.409Z,12.08
2022-09-12T07:10:13.889Z,11.98
2022-09-12T07:12:44.277Z,12.06
2022-09-12T07:15:14.932Z,12.18
2022-09-12T07:17:45.386Z,12.14
2022-09-12T07:20:15.858Z,12.20
2022-09-12T07:22:46.464Z,12.20
2022-09-12T07:25:16.290Z,12.20
2022-09-12T07:27:51.014Z,12.14
2022-09-12T07:30:21.831Z,12.10
2022-09-12T07:32:58.051Z,11.85
2022-09-12T07:35:28.686Z,11.80
2022-09-12T07:37:58.591Z,11.74
2022-09-12T07:40:28.732Z,11.73
2022-09-12T07:42:59.143Z,11.85
2022-09-12T07:45:29.591Z,11.98
2022-09-12T07:48:00.172Z,12.10
2022-09-12T07:50:30.105Z,12.11
2022-09-12T07:53:00.220Z,12.02
2022-09-12T07:55:31.135Z,12.02
2022-09-12T07:58:01.621Z,12.08
2022-09-12T08:00:37.580Z,12.15
2022-09-12T08:03:08.631Z,11.93
2022-09-12T08:05:39.064Z,11.75
2022-09-12T08:08:09.763Z,11.80
2022-09-12T08:10:40.148Z,11.90
2022-09-12T08:13:10.952Z,11.93
2022-09-12T08:15:41.481Z,11.84
2022-09-12T08:18:11.853Z,11.73
2022-09-12T08:20:42.291Z,11.85
2022-09-12T08:23:12.630Z,11.75
2022-09-12T08:25:43.194Z,11.64
2022-09-12T08:28:13.064Z,11.63
2022-09-12T08:30:43.373Z,11.63
2022-09-12T08:33:13.875Z,11.69
2022-09-12T08:35:44.301Z,11.80
2022-09-12T08:38:14.677Z,11.64
2022-09-12T08:40:52.462Z,11.69
2022-09-12T08:43:32.309Z,11.50
2022-09-12T08:46:13.486Z,11.59
2022-09-12T08:48:47.178Z,11.71
2022-09-12T08:51:20.818Z,11.75
2022-09-12T08:53:55.876Z,11.80
2022-09-12T08:56:31.669Z,11.80
2022-09-12T08:59:02.250Z,11.56
2022-09-12T09:01:44.310Z,11.57
2022-09-12T09:04:36.262Z,11.60
2022-09-12T09:07:09.815Z,11.61
2022-09-12T09:10:05.476Z,11.60
2022-09-12T09:13:08.147Z,11.66
2022-09-12T09:15:45.983Z,11.64
2022-09-12T09:18:26.721Z,11.59
2022-09-12T09:21:16.605Z,11.56
2022-09-12T09:23:52.516Z,11.57
2022-09-12T09:26:50.526Z,11.63
2022-09-12T09:29:30.432Z,11.71
2022-09-12T09:32:05.278Z,11.74
2022-09-12T09:34:35.672Z,11.74
2022-09-12T09:37:23.635Z,11.70
2022-09-12T09:40:07.855Z,11.57
2022-09-12T09:42:58.337Z,11.47
2022-09-12T09:45:32.203Z,11.46
2022-09-12T09:48:36.688Z,11.42
2022-09-12T09:51:10.608Z,11.52
2022-09-12T09:53:56.202Z,11.59
2022-09-12T09:56:46.331Z,11.73
2022-09-12T09:59:31.528Z,11.90
2022-09-12T10:02:28.101Z,11.91
2022-09-12T10:05:01.040Z,11.94
2022-09-12T10:07:31.456Z,12.01
2022-09-12T10:10:20.462Z,12.11
2022-09-12T10:12:51.823Z,12.12
2022-09-12T10:15:27.570Z,12.12
2022-09-12T10:17:58.486Z,12.04
2022-09-12T10:20:34.651Z,12.18
2022-09-12T10:23:20.937Z,12.29
2022-09-12T10:25:57.819Z,12.48
2022-09-12T10:28:44.981Z,12.59
2022-09-12T10:31:30.717Z,12.45
2022-09-12T10:34:02.665Z,12.35
2022-09-12T10:36:41.776Z,12.43
2022-09-12T10:39:20.133Z,12.59
2022-09-12T10:41:50.698Z,12.70
2022-09-12T10:44:29.234Z,12.63
2022-09-12T10:47:02.192Z,12.67
2022-09-12T10:49:41.614Z,12.59
2022-09-12T10:52:26.380Z,12.70
2022-09-12T10:54:56.955Z,12.80
2022-09-12T10:57:41.825Z,12.83
2022-09-12T11:00:19.089Z,12.59
2022-09-12T11:03:26.139Z,12.75
2022-09-12T11:06:03.778Z,12.89
2022-09-12T11:08:42.942Z,13.02
2022-09-12T11:11:19.967Z,12.93
2022-09-12T11:13:57.464Z,12.93
2022-09-12T11:16:45.269Z,13.04
2022-09-12T11:19:56.169Z,13.10
2022-09-12T11:22:47.128Z,13.18
2022-09-12T11:25:31.344Z,13.31
2022-09-12T11:28:38.385Z,13.41
2022-09-12T11:31:37.750Z,13.37
2022-09-12T11:34:12.689Z,13.51
2022-09-12T11:37:00.350Z,13.62
2022-09-12T11:39:37.675Z,13.72
2022-09-12T11:42:18.322Z,13.78
2022-09-12T11:45:11.936Z,13.79
2022-09-12T11:47:43.164Z,13.81
2022-09-12T11:50:45.561Z,13.72
2022-09-12T11:53:27.989Z,13.64
2022-09-12T11:56:10.856Z,13.72
2022-09-12T11:58:44.264Z,13.74
2022-09-12T12:01:23.285Z,13.55
2022-09-12T12:03:56.723Z,13.64
2022-09-12T12:06:34.654Z,13.79
2022-09-12T12:09:06.954Z,13.94
2022-09-12T12:12:09.434Z,13.98
2022-09-12T12:14:48.450Z,13.72
2022-09-12T12:17:22.616Z,13.68
2022-09-12T12:20:08.648Z,13.76
2022-09-12T12:22:39.773Z,13.90
2022-09-12T12:25:19.600Z,13.85
2022-09-12T12:27:56.550Z,13.82
2022-09-12T12:30:34.774Z,13.89
2022-09-12T12:33:47.562Z,14.01
2022-09-12T12:36:47.621Z,13.90
2022-09-12T12:39:36.174Z,14.02
2022-09-12T12:42:06.716Z,14.06
2022-09-12T12:44:50.277Z,14.23
2022-09-12T12:47:28.756Z,14.19
2022-09-12T12:50:13.242Z,14.33
2022-09-12T12:52:57.057Z,14.50
2022-09-12T12:55:46.048Z,14.66
2022-09-12T12:58:32.474Z,14.87
2022-09-12T13:01:11.967Z,15.02
2022-09-12T13:04:02.552Z,15.05
2022-09-12T13:06:36.347Z,15.28
2022-09-12T13:09:20.648Z,15.52
2022-09-12T13:12:01.091Z,15.73
2022-09-12T13:14:45.019Z,16.06
2022-09-12T13:17:38.385Z,16.16
2022-09-12T13:20:27.867Z,16.45
2022-09-12T13:23:00.384Z,16.76
2022-09-12T13:25:32.789Z,16.92
2022-09-12T13:28:14.475Z,16.96
2022-09-12T13:30:49.345Z,16.82
2022-09-12T13:33:32.226Z,16.86
2022-09-12T13:36:01.943Z,17.10
2022-09-12T13:38:35.431Z,17.24
2022-09-12T13:41:31.391Z,17.50
2022-09-12T13:44:03.791Z,17.53
2022-09-12T13:46:36.291Z,17.85
2022-09-12T13:49:29.674Z,17.97
2022-09-12T13:52:09.776Z,18.48
2022-09-12T13:54:41.473Z,18.32
2022-09-12T13:57:31.967Z,18.13
2022-09-12T14:00:09.190Z,18.25
2022-09-12T14:02:42.344Z,18.52
2022-09-12T14:05:22.596Z,18.62
2022-09-12T14:08:05.462Z,19.11
2022-09-12T14:10:40.498Z,18.93
2022-09-12T14:13:28.391Z,18.69
2022-09-12T14:16:01.028Z,18.80
2022-09-12T14:18:38.369Z,19.03
2022-09-12T14:21:14.278Z,19.10
2022-09-12T14:23:49.186Z,19.07
2022-09-12T14:26:20.223Z,19.07
2022-09-12T14:28:50.671Z,19.07
2022-09-12T14:31:25.437Z,19.06
2022-09-12T14:34:13.672Z,18.99
2022-09-12T14:36:56.604Z,19.03
2022-09-12T14:39:27.348Z,19.11
2022-09-12T14:42:13.625Z,19.31
2022-09-12T14:45:07.698Z,19.47
2022-09-12T14:47:42.564Z,19.68
2022-09-12T14:50:22.028Z,19.71
2022-09-12T14:53:20.889Z,19.62
2022-09-12T14:56:15.708Z,19.62
2022-09-12T14:58:47.617Z,19.62
2022-09-12T15:01:18.389Z,19.75
2022-09-12T15:03:53.399Z,19.72
2022-09-12T15:06:37.954Z,19.82
2022-09-12T15:09:14.719Z,19.97
2022-09-12T15:11:45.084Z,20.15
2022-09-12T15:14:17.046Z,20.26
2022-09-12T15:16:47.590Z,20.41
2022-09-12T15:19:20.025Z,20.57
2022-09-12T15:21:56.067Z,20.53
2022-09-12T15:24:30.088Z,20.36
2022-09-12T15:27:00.701Z,20.24
2022-09-12T15:29:31.586Z,20.20
2022-09-12T15:32:02.017Z,20.73
2022-09-12T15:34:32.486Z,20.94
2022-09-12T15:37:03.041Z,21.19
2022-09-12T15:39:33.497Z,21.06
2022-09-12T15:42:03.835Z,20.91
2022-09-12T15:44:34.231Z,20.85
2022-09-12T15:47:04.675Z,20.83
2022-09-12T15:49:35.277Z,20.87
2022-09-12T15:52:05.742Z,20.91
2022-09-12T15:54:37.509Z,20.83
2022-09-12T15:57:07.680Z,20.61
2022-09-12T15:59:37.968Z,20.58
2022-09-12T16:02:08.337Z,20.41
2022-09-12T16:04:38.772Z,20.30
2022-09-12T16:07:09.141Z,20.26
2022-09-12T16:09:39.828Z,20.30
2022-09-12T16:12:11.008Z,20.40
2022-09-12T16:14:41.930Z,20.64
2022-09-12T16:17:15.586Z,21.09
2022-09-12T16:19:46.007Z,21.60
2022-09-12T16:22:16.468Z,22.03
2022-09-12T16:24:46.886Z,21.57
2022-09-12T16:27:17.328Z,21.36
2022-09-12T16:29:47.180Z,21.38
2022-09-12T16:32:17.741Z,21.31
2022-09-12T16:34:48.234Z,21.34
2022-09-12T16:37:19.497Z,21.22
2022-09-12T16:39:51.173Z,21.15
2022-09-12T16:42:21.717Z,20.95
2022-09-12T16:44:52.143Z,20.73
2022-09-12T16:47:22.703Z,20.60
2022-09-12T16:49:53.206Z,20.54
2022-09-12T16:52:24.216Z,20.50
2022-09-12T16:54:54.863Z,20.61
2022-09-12T16:57:25.343Z,20.88
2022-09-12T16:59:56.089Z,21.14
2022-09-12T17:02:26.603Z,21.49
2022-09-12T17:04:57.315Z,22.07
2022-09-12T17:07:27.685Z,22.24
2022-09-12T17:09:58.458Z,21.93
2022-09-12T17:12:28.889Z,21.53
2022-09-12T17:15:00.377Z,21.08
2022-09-12T17:17:30.788Z,20.83
2022-09-12T17:20:01.404Z,20.67
2022-09-12T17:22:31.863Z,20.57
2022-09-12T17:25:02.272Z,20.46
2022-09-12T17:27:32.636Z,20.39
2022-09-12T17:30:03.064Z,20.30
2022-09-12T17:32:34.000Z,20.29
2022-09-12T17:35:04.601Z,20.32
2022-09-12T17:37:37.636Z,20.30
2022-09-12T17:40:08.572Z,20.29
2022-09-12T17:42:38.996Z,20.24
2022-09-12T17:45:09.298Z,20.20
2022-09-12T17:47:42.382Z,20.13
2022-09-12T17:50:30.787Z,20.10
2022-09-12T17:53:01.989Z,20.06
2022-09-12T17:55:35.452Z,20.03
2022-09-12T17:58:06.284Z,20.00
2022-09-12T18:00:55.075Z,19.92
2022-09-12T18:03:26.215Z,19.87
2022-09-12T18:05:58.000Z,19.89
2022-09-12T18:08:28.441Z,19.87
2022-09-12T18:11:08.881Z,19.87
2022-09-12T18:13:39.407Z,19.85
2022-09-12T18:16:13.117Z,19.81
2022-09-12T18:18:43.802Z,19.79
2022-09-12T18:21:15.074Z,19.75
2022-09-12T18:23:45.468Z,19.72
2022-09-12T18:26:15.815Z,19.69
2022-09-12T18:28:46.793Z,19.68
2022-09-12T18:31:23.568Z,19.69
2022-09-12T18:33:54.405Z,19.66
2022-09-12T18:36:25.368Z,19.65
2022-09-12T18:38:56.202Z,19.65
2022-09-12T18:41:27.399Z,19.64
2022-09-12T18:43:59.799Z,19.61
2022-09-12T18:46:32.093Z,19.57
2022-09-12T18:49:03.460Z,19.54
2022-09-12T18:51:37.177Z,19.48
2022-09-12T18:54:12.570Z,19.44
2022-09-12T18:56:45.282Z,19.44
2022-09-12T18:59:16.091Z,19.36
2022-09-12T19:01:46.846Z,19.34
2022-09-12T19:04:17.939Z,19.27
2022-09-12T19:06:50.540Z,19.27
2022-09-12T19:09:25.451Z,19.18
2022-09-12T19:11:56.183Z,19.17
2022-09-12T19:14:28.224Z,19.11
2022-09-12T19:16:59.066Z,19.11
2022-09-12T19:19:29.556Z,19.11
2022-09-12T19:22:00.012Z,19.10
2022-09-12T19:24:30.641Z,19.08
2022-09-12T19:27:01.175Z,19.11
2022-09-12T19:29:31.689Z,19.14
2022-09-12T19:32:02.151Z,19.18
2022-09-12T19:34:32.556Z,19.14
2022-09-12T19:37:02.629Z,19.14
2022-09-12T19:39:32.732Z,19.11
2022-09-12T19:42:02.711Z,19.10
2022-09-12T19:44:32.599Z,19.11
2022-09-12T19:47:02.586Z,19.07
2022-09-12T19:49:32.940Z,19.04
2022-09-12T19:52:02.970Z,19.08
2022-09-12T19:54:33.342Z,19.04
2022-09-12T19:57:03.819Z,19.04
2022-09-12T19:59:34.173Z,19.01
2022-09-12T20:02:04.186Z,19.03
2022-09-12T20:04:34.875Z,19.01
2022-09-12T20:07:05.776Z,19.01
2022-09-12T20:09:37.270Z,19.03
2022-09-12T20:12:07.985Z,18.97
2022-09-12T20:14:38.448Z,18.94
2022-09-12T20:17:09.772Z,18.92
2022-09-12T20:19:40.402Z,18.89
2022-09-12T20:22:10.743Z,18.89
2022-09-12T20:24:40.614Z,18.87
2022-09-12T20:27:10.729Z,18.83
2022-09-12T20:29:41.166Z,18.79
2022-09-12T20:32:12.085Z,18.79
2022-09-12T20:34:42.428Z,18.79
2022-09-12T20:37:12.910Z,18.79
2022-09-12T20:39:45.939Z,18.70
2022-09-12T20:42:19.752Z,18.69
2022-09-12T20:44:50.103Z,18.70
2022-09-12T20:47:20.544Z,18.66
2022-09-12T20:49:50.995Z,18.64
2022-09-12T20:52:21.531Z,18.57
2022-09-12T20:54:51.652Z,18.53
2022-09-12T20:57:21.559Z,18.62
2022-09-12T20:59:51.820Z,18.60
2022-09-12T21:02:22.302Z,18.56
2022-09-12T21:04:52.644Z,18.53
2022-09-12T21:07:22.657Z,18.56
2022-09-12T21:09:52.719Z,18.53
2022-09-12T21:12:24.267Z,18.51
2022-09-12T21:14:54.628Z,18.51
2022-09-12T21:17:24.863Z,18.48
2022-09-12T21:19:55.080Z,18.45
2022-09-12T21:22:25.047Z,18.43
2022-09-12T21:24:55.348Z,18.36
2022-09-12T21:27:25.812Z,18.36
2022-09-12T21:29:57.056Z,18.29
2022-09-12T21:32:28.042Z,18.24
2022-09-12T21:34:58.801Z,18.22
2022-09-12T21:37:29.465Z,18.19
2022-09-12T21:40:00.580Z,18.11
2022-09-12T21:42:31.063Z,18.11
2022-09-12T21:45:01.437Z,18.08
2022-09-12T21:47:32.204Z,18.13
2022-09-12T21:50:02.724Z,18.13
2022-09-12T21:52:33.039Z,18.15
2022-09-12T21:55:06.342Z,18.11
2022-09-12T21:57:37.786Z,18.12
2022-09-12T22:00:13.291Z,18.08
2022-09-12T22:02:47.635Z,18.06
2022-09-12T22:05:19.130Z,18.08
2022-09-12T22:07:51.406Z,18.06
2022-09-12T22:10:22.095Z,18.05
2022-09-12T22:12:52.809Z,18.05
2022-09-12T22:15:40.208Z,18.08
2022-09-12T22:18:11.895Z,18.08
2022-09-12T22:20:42.357Z,18.09
2022-09-12T22:23:32.869Z,18.12
2022-09-12T22:26:05.738Z,18.08
2022-09-12T22:28:36.878Z,18.06
2022-09-12T22:31:08.122Z,18.08
2022-09-12T22:33:39.047Z,18.05
2022-09-12T22:36:11.233Z,18.04
2022-09-12T22:38:47.259Z,18.02
2022-09-12T22:41:17.891Z,18.04
2022-09-12T22:43:48.386Z,18.05
2022-09-12T22:46:18.906Z,18.04
2022-09-12T22:48:49.669Z,18.08
2022-09-12T22:51:20.454Z,18.05
2022-09-12T22:53:51.242Z,18.06
2022-09-12T22:56:21.681Z,18.06
2022-09-12T22:58:52.314Z,18.06
2022-09-12T23:01:33.137Z,18.06
2022-09-12T23:04:05.211Z,18.02
2022-09-12T23:06:38.847Z,18.01
2022-09-12T23:09:09.291Z,17.95
2022-09-12T23:11:41.372Z,17.94
2022-09-12T23:14:11.963Z,17.91
2022-09-12T23:16:43.432Z,17.90
2022-09-12T23:19:15.593Z,17.88
2022-09-12T23:21:51.707Z,17.82
2022-09-12T23:24:22.708Z,17.81
2022-09-12T23:26:53.016Z,17.78
2022-09-12T23:29:23.576Z,17.77
2022-09-12T23:31:54.444Z,17.80
2022-09-12T23:34:25.958Z,17.80
2022-09-12T23:36:57.754Z,17.78
2022-09-12T23:39:28.383Z,17.81
2022-09-12T23:42:02.069Z,17.78
2022-09-12T23:44:32.500Z,17.78
2022-09-12T23:47:02.405Z,17.77
2022-09-12T23:49:32.614Z,17.75
2022-09-12T23:52:03.655Z,17.77
2022-09-12T23:54:34.197Z,17.75
2022-09-12T23:57:05.880Z,17.75
2022-09-12T23:59:36.667Z,17.75
